createdAt,value
2018-12-02T00:05:50.923Z,13.47
2018-12-02T00:11:46.632Z,9.9
2018-12-02T00:17:40.132Z,10
2018-12-02T00:23:35.064Z,8.28
2018-12-02T00:29:30.089Z,10.17
2018-12-02T00:35:28.275Z,9.33
2018-12-02T00:41:21.279Z,10.76
2018-12-02T00:47:16.042Z,11.86
2018-12-02T00:53:11.143Z,9.05
2018-12-02T00:59:06.119Z,8.55
2018-12-02T01:05:01.007Z,11.94
2018-12-02T01:10:56.620Z,8.43
2018-12-02T01:16:51.296Z,10.53
2018-12-02T01:22:46.445Z,9.78
2018-12-02T01:28:40.070Z,11.97
2018-12-02T01:34:35.122Z,9.64
2018-12-02T01:40:31.200Z,8.93
2018-12-02T01:46:25.607Z,9.42
2018-12-02T01:52:20.794Z,11.86
2018-12-02T01:58:15.115Z,8.02
2018-12-02T02:04:10.086Z,12.3
2018-12-02T02:10:06.269Z,10.99
2018-12-02T02:16:00.065Z,13.46
2018-12-02T02:21:55.110Z,12.15
2018-12-02T02:27:50.109Z,18.92
2018-12-02T02:33:45.834Z,13.12
2018-12-02T02:39:40.135Z,15.74
2018-12-02T02:45:35.071Z,9.79
2018-12-02T02:51:30.103Z,13.82
2018-12-02T02:57:25.845Z,10.33
2018-12-02T03:03:20.804Z,8.84
2018-12-02T03:09:15.103Z,17.08
2018-12-02T03:15:10.128Z,10.36
2018-12-02T03:21:05.089Z,11.04
2018-12-02T03:27:00.185Z,9.08
2018-12-02T03:32:55.109Z,11.93
2018-12-02T03:38:50.779Z,11.87
2018-12-02T03:44:45.115Z,8.76
2018-12-02T03:50:40.117Z,10.42
2018-12-02T03:56:35.153Z,8.62
2018-12-02T04:02:30.800Z,9.38
2018-12-02T04:08:25.756Z,9.43
2018-12-02T04:14:20.851Z,9.17
2018-12-02T04:20:15.371Z,8.21
2018-12-02T04:26:10.103Z,11.16
2018-12-02T04:32:05.162Z,8.23
2018-12-02T04:38:00.097Z,7.11
2018-12-02T04:43:55.117Z,7.6
2018-12-02T04:49:50.800Z,7.84
2018-12-02T04:55:45.109Z,8.06
2018-12-02T05:01:40.843Z,7.7
2018-12-02T05:07:35.151Z,6.49
2018-12-02T05:13:31.352Z,9.43
2018-12-02T05:19:26.105Z,5.62
2018-12-02T05:25:20.290Z,4.96
2018-12-02T05:31:16.103Z,5.26
2018-12-02T05:37:11.385Z,6.5
2018-12-02T05:43:05.119Z,5.11
2018-12-02T05:49:00.127Z,6.33
2018-12-02T05:54:55.119Z,7.43
2018-12-02T06:00:50.138Z,5.11
2018-12-02T06:06:45.329Z,6.93
2018-12-02T06:12:41.317Z,6.53
2018-12-02T06:18:35.149Z,6.11
2018-12-02T06:24:30.186Z,6.32
2018-12-02T06:30:25.814Z,9.26
2018-12-02T06:36:21.314Z,22.87
2018-12-02T06:42:15.161Z,13.93
2018-12-02T06:48:10.143Z,11.55
2018-12-02T06:54:05.152Z,7.49
2018-12-02T07:00:00.158Z,8.84
2018-12-02T07:05:55.204Z,8.57
2018-12-02T07:11:50.195Z,9.47
2018-12-02T07:17:45.154Z,8.13
2018-12-02T07:23:41.160Z,10.04
2018-12-02T07:29:35.160Z,14.26
2018-12-02T07:35:30.196Z,16.91
2018-12-02T07:41:25.200Z,19.37
2018-12-02T07:47:20.158Z,22.48
2018-12-02T07:53:15.156Z,12.85
2018-12-02T07:59:10.209Z,29.83
2018-12-02T08:05:05.195Z,34.65
2018-12-02T08:11:00.178Z,36.66
2018-12-02T08:16:55.163Z,39.49
2018-12-02T08:22:51.430Z,43.08
2018-12-02T08:28:45.218Z,37.96
2018-12-02T08:34:40.178Z,39.06
2018-12-02T08:40:35.181Z,33.39
2018-12-02T08:46:30.197Z,38.95
2018-12-02T08:52:25.201Z,51.04
2018-12-02T08:58:20.230Z,32.07
2018-12-02T09:04:15.193Z,37.37
2018-12-02T09:10:10.160Z,39.97
2018-12-02T09:16:05.217Z,35.82
2018-12-02T09:22:00.176Z,39.4
2018-12-02T09:27:55.171Z,38.56
2018-12-02T09:33:50.176Z,34.37
2018-12-02T09:39:45.172Z,62.77
2018-12-02T09:51:35.195Z,53.63
2018-12-02T09:51:35.210Z,50.48
2018-12-02T09:57:30.195Z,44.17
2018-12-02T10:03:25.176Z,41.21
2018-12-02T10:09:20.195Z,47.5
2018-12-02T10:15:15.202Z,59.46
2018-12-02T10:21:10.239Z,61.79
2018-12-02T10:27:05.207Z,65.95
2018-12-02T10:33:00.843Z,48.47
2018-12-02T10:38:55.197Z,41.44
2018-12-02T10:44:50.185Z,35.52
2018-12-02T10:50:45.197Z,37.81
2018-12-02T10:56:40.234Z,36.74
2018-12-02T11:02:35.200Z,45.17
2018-12-02T11:08:30.215Z,49.89
2018-12-02T11:14:25.206Z,56.02
2018-12-02T11:20:20.203Z,48.21
2018-12-02T11:26:15.197Z,46.83
2018-12-02T11:32:10.254Z,46.56
2018-12-02T11:38:05.200Z,51.1
2018-12-02T11:44:00.215Z,45.44
2018-12-02T11:49:55.238Z,51.2
2018-12-02T11:55:50.226Z,54.98
2018-12-02T12:01:45.278Z,62.47
2018-12-02T12:07:40.213Z,53.31
2018-12-02T12:13:35.206Z,48.72
2018-12-02T12:19:30.227Z,62.46
2018-12-02T12:25:25.244Z,75.65
2018-12-02T12:31:20.286Z,67.15
2018-12-02T12:37:15.200Z,66.48
2018-12-02T12:43:10.203Z,67.29
2018-12-02T12:49:05.218Z,73.62
2018-12-02T12:55:00.211Z,77.94
2018-12-02T13:00:55.235Z,84.01
2018-12-02T13:06:50.234Z,69.25
2018-12-02T13:12:45.217Z,46.6
2018-12-02T13:18:40.344Z,48.66
2018-12-02T13:24:35.317Z,41.61
2018-12-02T13:30:30.235Z,41.25
2018-12-02T13:36:25.246Z,51.55
2018-12-02T13:42:20.236Z,56.42
2018-12-02T13:48:15.226Z,58.18
2018-12-02T13:54:10.239Z,53.8
2018-12-02T14:00:05.245Z,68.67
2018-12-02T14:06:00.265Z,67.65
2018-12-02T14:11:55.262Z,66.03
2018-12-02T14:17:50.264Z,76.51
2018-12-02T14:23:45.235Z,62.97
2018-12-02T14:29:40.296Z,41.33
2018-12-02T14:35:35.239Z,46.5
2018-12-02T14:41:30.272Z,45.23
2018-12-02T14:47:25.252Z,53.99
2018-12-02T14:53:20.245Z,47.27
2018-12-02T14:59:15.239Z,51.9
2018-12-02T15:05:10.244Z,50.69
2018-12-02T15:11:05.231Z,52.06
2018-12-02T15:17:00.244Z,46.84
2018-12-02T15:22:55.242Z,59.67
2018-12-02T15:28:50.253Z,54.85
2018-12-02T15:34:45.265Z,54.01
2018-12-02T15:40:40.258Z,55.66
2018-12-02T15:46:35.261Z,71.16
2018-12-02T15:52:30.316Z,64.03
2018-12-02T15:58:25.258Z,68.84
2018-12-02T16:04:20.266Z,67
2018-12-02T16:10:15.231Z,66.31
2018-12-02T16:16:10.250Z,81.58
2018-12-02T16:22:05.246Z,61.64
2018-12-02T16:28:00.959Z,61.76
2018-12-02T16:33:55.272Z,75.36
2018-12-02T16:39:50.342Z,65.76
2018-12-02T16:45:45.249Z,64.67
2018-12-02T16:51:40.256Z,55.77
2018-12-02T16:57:35.262Z,79.55
2018-12-02T17:03:30.232Z,67.1
2018-12-02T17:09:25.252Z,89.55
2018-12-02T17:15:20.281Z,75.33
2018-12-02T17:21:15.235Z,81.53
2018-12-02T17:27:10.330Z,103.1
2018-12-02T17:33:05.283Z,70.36
2018-12-02T17:39:00.264Z,69.96
2018-12-02T17:44:55.266Z,72.22
2018-12-02T17:50:50.255Z,73.43
2018-12-02T17:56:45.278Z,61.8
2018-12-02T18:02:40.252Z,58.05
2018-12-02T18:08:35.267Z,57.84
2018-12-02T18:14:30.256Z,77.77
2018-12-02T18:20:25.253Z,83.07
2018-12-02T18:26:20.286Z,101.02
2018-12-02T18:32:15.264Z,96.57
2018-12-02T18:38:10.322Z,92.5
2018-12-02T18:44:05.260Z,89.2
2018-12-02T18:50:00.321Z,81.23
2018-12-02T18:55:55.257Z,80.96
2018-12-02T19:01:50.297Z,82.67
2018-12-02T19:07:45.287Z,71.38
2018-12-02T19:13:43.484Z,75.19
2018-12-02T19:19:35.269Z,72.83
2018-12-02T19:25:30.308Z,90.03
2018-12-02T19:31:25.264Z,78.51
2018-12-02T19:37:20.284Z,91.97
2018-12-02T19:43:15.280Z,118.06
2018-12-02T19:49:10.302Z,88.11
2018-12-02T19:55:05.281Z,86.97
2018-12-02T20:01:00.304Z,83.58
2018-12-02T20:06:55.286Z,77.73
2018-12-02T20:12:50.257Z,88.08
2018-12-02T20:18:45.284Z,110.19
2018-12-02T20:24:40.293Z,99.53
2018-12-02T20:30:35.294Z,99.31
2018-12-02T20:36:30.278Z,92.99
2018-12-02T20:42:25.338Z,94.26
2018-12-02T20:48:20.328Z,86.17
2018-12-02T20:54:15.304Z,94.08
2018-12-02T21:00:10.294Z,91.54
2018-12-02T21:06:05.274Z,78.46
2018-12-02T21:12:00.274Z,88.8
2018-12-02T21:17:55.276Z,93.96
2018-12-02T21:23:50.286Z,95.46
2018-12-02T21:29:45.295Z,90.43
2018-12-02T21:35:40.265Z,84.43
2018-12-02T21:41:35.292Z,77.99
2018-12-02T21:47:30.296Z,66.05
2018-12-02T21:53:25.281Z,75.08
2018-12-02T21:59:20.320Z,68.17
2018-12-02T22:05:15.340Z,78.89
2018-12-02T22:11:10.263Z,59.87
2018-12-02T22:17:05.301Z,63.64
2018-12-02T22:23:00.298Z,67.3
2018-12-02T22:28:55.268Z,72.98
2018-12-02T22:34:50.293Z,61.66
2018-12-02T22:40:45.275Z,68.4
2018-12-02T22:46:40.281Z,59.19
2018-12-02T22:52:35.277Z,65.63
2018-12-02T22:58:30.340Z,52.17
2018-12-02T23:04:25.302Z,60.53
2018-12-02T23:10:20.286Z,42.24
2018-12-02T23:16:15.287Z,46.93
2018-12-02T23:22:10.282Z,49.54
2018-12-02T23:28:05.288Z,39.72
2018-12-02T23:34:00.273Z,39.34
2018-12-02T23:39:55.307Z,40.03
2018-12-02T23:45:50.289Z,40.88
2018-12-02T23:51:45.284Z,40.5
2018-12-02T23:57:40.360Z,44.76
